Impacts METAR Board
IDs:

KHBG - Hattiesburg/Chain Mu, MS, US

Updated at: 1000 UTC 16 Aug 2018
Potential Impact None Slight Moderate High
Time 15/22Z 15/23Z 16/00Z 16/01Z 16/02Z 16/03Z 16/04Z 16/05Z 16/06Z 16/07Z 16/08Z 16/09Z 16/10Z
Temp95 88 85 84 82 80 79 79 78 77 76 75 75
Dewpt67 74 75 75 76 76 76 75 75 75 74 74 74
Altim29.99 30.00 30.00 30.03 30.03 30.05 30.06 30.06 30.06 30.05 30.05 30.06 30.06
VIS10 10 10 10 10 10 10 10 10 10 10 10 10
CIG-- -- -- -- -- -- -- -- -- -- -- -- --
CoverCLRFEWCLRCLRCLRCLRCLRCLRCLRCLRCLRCLRCLR
FltCatVFRVFRVFRVFRVFRVFRVFRVFRVFRVFRVFRVFRVFR
WX--------------------------
WDir018017001500140000000
WSpd0 11 6 0 5 0 3 0 0 0 0 0 0
WGst-- -- -- -- -- -- -- -- -- -- -- -- --
Raw hourly METARs
KHBG 152153Z AUTO 00000KT 10SM CLR 35/19 A2999 RMK AO2 SLP152 T03500194 TSNO
KHBG 152303Z AUTO 18011KT 10SM FEW055 31/23 A3000 RMK AO2 WSHFT 2243 T03110233 TSNO
KHBG 152353Z AUTO 17006KT 10SM CLR 29/24 A3000 RMK AO2 WSHFT 2243 SLP156 T02940239 10350 20294 56002 TSNO
KHBG 160053Z AUTO 00000KT 10SM CLR 29/24 A3003 RMK AO2 SLP165 T02890239 TSNO
KHBG 160153Z AUTO 15005KT 10SM CLR 28/24 A3003 RMK AO2 SLP165 T02780244 TSNO
KHBG 160253Z AUTO 00000KT 10SM CLR 27/24 A3005 RMK AO2 SLP171 T02670244 51015 TSNO
KHBG 160353Z AUTO 14003KT 10SM CLR 26/24 A3006 RMK AO2 SLP175 T02610244 TSNO
KHBG 160453Z AUTO 00000KT 10SM CLR 26/24 A3006 RMK AO2 SLP175 T02610239 TSNO
KHBG 160553Z AUTO 00000KT 10SM CLR 26/24 A3006 RMK AO2 SLP173 T02560239 10294 20256 403500233 50003 TSNO
KHBG 160653Z AUTO 00000KT 10SM CLR 25/24 A3005 RMK AO2 SLP172 T02500239 TSNO
KHBG 160753Z AUTO 00000KT 10SM CLR 24/23 A3005 RMK AO2 SLP171 T02440233 TSNO
KHBG 160853Z AUTO 00000KT 10SM CLR 24/23 A3006 RMK AO2 SLP173 T02390233 53000 TSNO
KHBG 160953Z AUTO 00000KT 10SM CLR 24/23 A3006 RMK AO2 SLP175 T02390233 TSNO



Page loaded:  10:25 UTC  |   03:25 AM Pacific  |   04:25 AM Mountain  |   05:25 AM Central  |   06:25 AM Eastern

 

ADVISORIES

FORECASTS

FORECASTS

OBSERVATIONS

USER TOOLS

ABOUT US